VBD205 SBFZ-SBBE
Flight info
| Callsign | VBD205 |
|---|---|
| Flight time | 2h 48m |
| Altitude | 12000 |
| Route | ISUPI UZ81 OBLEV LIVE1A |
| Aircraft | TBM9/L-SDFGRWY/S |
Departure
| Time | 2026-05-05 16:34 |
|---|---|
| Airport | Pinto Martins International Airport (SBFZ) |
Arrival
| Time | 2026-05-05 19:22 |
|---|---|
| Airport | Val de Cans/Júlio Cezar Ribeiro International Airport (SBBE) |
| Time | Latitude | Longitude | Altitude | Speed | Heading |
|---|---|---|---|---|---|
| 2026-05-05 16:22 | -3.77751 | -38.54163 | 88 ft | 0 kts | 192° |
| 2026-05-05 16:28 | -3.77756 | -38.54169 | 86 ft | 8 kts | 270° |
| 2026-05-05 16:29 | -3.77661 | -38.54146 | 86 ft | 18 kts | 321° |
| 2026-05-05 16:29 | -3.77631 | -38.54265 | 85 ft | 19 kts | 285° |
| 2026-05-05 16:29 | -3.77572 | -38.54374 | 86 ft | 19 kts | 351° |
| 2026-05-05 16:29 | -3.77436 | -38.54378 | 89 ft | 20 kts | 14° |
| 2026-05-05 16:30 | -3.77420 | -38.54373 | 89 ft | 0 kts | 18° |
| 2026-05-05 16:33 | -3.77372 | -38.54355 | 88 ft | 15 kts | 27° |
| 2026-05-05 16:33 | -3.77368 | -38.54237 | 89 ft | 27 kts | 103° |
| 2026-05-05 16:33 | -3.77476 | -38.53835 | 83 ft | 92 kts | 104° |
| 2026-05-05 16:33 | -3.77747 | -38.53152 | 312 ft | 119 kts | 135° |
| 2026-05-05 16:34 | -3.78570 | -38.53018 | 619 ft | 135 kts | 205° |
| 2026-05-05 16:34 | -3.79121 | -38.53781 | 936 ft | 146 kts | 263° |
| 2026-05-05 16:34 | -3.78783 | -38.54739 | 1266 ft | 156 kts | 315° |
| 2026-05-05 16:34 | -3.77908 | -38.55411 | 1591 ft | 161 kts | 319° |
| 2026-05-05 16:35 | -3.77174 | -38.56258 | 1900 ft | 166 kts | 303° |
| 2026-05-05 16:35 | -3.76705 | -38.57364 | 2180 ft | 176 kts | 285° |
| 2026-05-05 16:35 | -3.76432 | -38.58607 | 2479 ft | 189 kts | 282° |
| 2026-05-05 16:35 | -3.76169 | -38.59922 | 2784 ft | 196 kts | 282° |
| 2026-05-05 16:36 | -3.75896 | -38.61276 | 3094 ft | 200 kts | 282° |
| 2026-05-05 16:36 | -3.75618 | -38.62636 | 3395 ft | 204 kts | 282° |
| 2026-05-05 16:36 | -3.75325 | -38.64041 | 3697 ft | 208 kts | 283° |
| 2026-05-05 16:36 | -3.75033 | -38.65459 | 3991 ft | 208 kts | 282° |
| 2026-05-05 16:37 | -3.74747 | -38.66873 | 4291 ft | 207 kts | 282° |
| 2026-05-05 16:37 | -3.74457 | -38.68286 | 4592 ft | 208 kts | 282° |
| 2026-05-05 16:37 | -3.74165 | -38.69709 | 4885 ft | 209 kts | 282° |
| 2026-05-05 16:37 | -3.73871 | -38.71135 | 5190 ft | 209 kts | 282° |
| 2026-05-05 16:38 | -3.73576 | -38.72565 | 5487 ft | 210 kts | 282° |
| 2026-05-05 16:38 | -3.73283 | -38.74001 | 5788 ft | 211 kts | 282° |
| 2026-05-05 16:38 | -3.72985 | -38.75447 | 6081 ft | 212 kts | 282° |
| 2026-05-05 16:38 | -3.72687 | -38.76897 | 6388 ft | 214 kts | 282° |
| 2026-05-05 16:39 | -3.72387 | -38.78358 | 6682 ft | 214 kts | 282° |
| 2026-05-05 16:39 | -3.72087 | -38.79820 | 6981 ft | 215 kts | 282° |
| 2026-05-05 16:39 | -3.71787 | -38.81279 | 7280 ft | 214 kts | 282° |
| 2026-05-05 16:39 | -3.71486 | -38.82735 | 7576 ft | 214 kts | 282° |
| 2026-05-05 16:40 | -3.71189 | -38.84192 | 7874 ft | 214 kts | 282° |
| 2026-05-05 16:40 | -3.70888 | -38.85652 | 8172 ft | 214 kts | 282° |
| 2026-05-05 16:40 | -3.70587 | -38.87115 | 8470 ft | 215 kts | 282° |
| 2026-05-05 16:40 | -3.70286 | -38.88580 | 8768 ft | 215 kts | 282° |
| 2026-05-05 16:41 | -3.69985 | -38.90048 | 9066 ft | 215 kts | 282° |
| 2026-05-05 16:41 | -3.69682 | -38.91520 | 9365 ft | 216 kts | 282° |
| 2026-05-05 16:41 | -3.69379 | -38.92993 | 9663 ft | 217 kts | 282° |
| 2026-05-05 16:41 | -3.69075 | -38.94471 | 9961 ft | 217 kts | 282° |
| 2026-05-05 16:42 | -3.68770 | -38.95949 | 10259 ft | 217 kts | 282° |
| 2026-05-05 16:42 | -3.68466 | -38.97431 | 10555 ft | 218 kts | 282° |
| 2026-05-05 16:42 | -3.68160 | -38.98916 | 10859 ft | 218 kts | 282° |
| 2026-05-05 16:42 | -3.67853 | -39.00404 | 11155 ft | 219 kts | 282° |
| 2026-05-05 16:43 | -3.67547 | -39.01896 | 11453 ft | 219 kts | 282° |
| 2026-05-05 16:43 | -3.67240 | -39.03393 | 11751 ft | 220 kts | 282° |
| 2026-05-05 16:43 | -3.66931 | -39.04889 | 11996 ft | 223 kts | 282° |
| 2026-05-05 16:43 | -3.66610 | -39.06432 | 12001 ft | 234 kts | 282° |
| 2026-05-05 16:44 | -3.66272 | -39.08051 | 12006 ft | 241 kts | 282° |
| 2026-05-05 16:44 | -3.65929 | -39.09714 | 12010 ft | 245 kts | 282° |
| 2026-05-05 16:44 | -3.65581 | -39.11402 | 12010 ft | 248 kts | 282° |
| 2026-05-05 16:44 | -3.65232 | -39.13100 | 12011 ft | 249 kts | 282° |
| 2026-05-05 16:45 | -3.64882 | -39.14801 | 12010 ft | 250 kts | 282° |
| 2026-05-05 16:45 | -3.64530 | -39.16509 | 12009 ft | 251 kts | 282° |
| 2026-05-05 16:45 | -3.64178 | -39.18220 | 12007 ft | 251 kts | 282° |
| 2026-05-05 16:45 | -3.63825 | -39.19931 | 12006 ft | 251 kts | 282° |
| 2026-05-05 16:46 | -3.63472 | -39.21643 | 12004 ft | 251 kts | 282° |
| 2026-05-05 16:46 | -3.63119 | -39.23355 | 12002 ft | 251 kts | 282° |
| 2026-05-05 16:46 | -3.62767 | -39.25066 | 12000 ft | 251 kts | 282° |
| 2026-05-05 16:46 | -3.62414 | -39.26778 | 11998 ft | 251 kts | 282° |
| 2026-05-05 16:47 | -3.62061 | -39.28491 | 11996 ft | 251 kts | 282° |
| 2026-05-05 16:47 | -3.61708 | -39.30203 | 11994 ft | 251 kts | 282° |
| 2026-05-05 16:47 | -3.61355 | -39.31915 | 11997 ft | 251 kts | 282° |
| 2026-05-05 16:47 | -3.61002 | -39.33625 | 11993 ft | 251 kts | 282° |
| 2026-05-05 16:48 | -3.60649 | -39.35337 | 11986 ft | 251 kts | 282° |
| 2026-05-05 16:48 | -3.60295 | -39.37050 | 11994 ft | 251 kts | 282° |
| 2026-05-05 16:48 | -3.59943 | -39.38763 | 11987 ft | 251 kts | 282° |
| 2026-05-05 16:48 | -3.59589 | -39.40477 | 11994 ft | 251 kts | 282° |
| 2026-05-05 16:49 | -3.59235 | -39.42189 | 11991 ft | 251 kts | 282° |
| 2026-05-05 16:49 | -3.58881 | -39.43903 | 11994 ft | 251 kts | 282° |
| 2026-05-05 16:49 | -3.58529 | -39.45617 | 11996 ft | 252 kts | 282° |
| 2026-05-05 16:49 | -3.58174 | -39.47329 | 11995 ft | 251 kts | 282° |
| 2026-05-05 16:50 | -3.57821 | -39.49043 | 11995 ft | 252 kts | 282° |
| 2026-05-05 16:50 | -3.57467 | -39.50761 | 11996 ft | 252 kts | 282° |
| 2026-05-05 16:50 | -3.57110 | -39.52479 | 11994 ft | 252 kts | 282° |
| 2026-05-05 16:50 | -3.56756 | -39.54200 | 11991 ft | 252 kts | 282° |
| 2026-05-05 16:51 | -3.56403 | -39.55919 | 11994 ft | 252 kts | 282° |
| 2026-05-05 16:51 | -3.56046 | -39.57640 | 11995 ft | 253 kts | 282° |
| 2026-05-05 16:51 | -3.55690 | -39.59362 | 11994 ft | 253 kts | 282° |
| 2026-05-05 16:51 | -3.55334 | -39.61083 | 11990 ft | 252 kts | 282° |
| 2026-05-05 16:52 | -3.54980 | -39.62804 | 11995 ft | 252 kts | 282° |
| 2026-05-05 16:52 | -3.54628 | -39.64502 | 11988 ft | 252 kts | 282° |
| 2026-05-05 16:52 | -3.54273 | -39.66220 | 11995 ft | 252 kts | 282° |
| 2026-05-05 16:52 | -3.53918 | -39.67937 | 11994 ft | 252 kts | 282° |
| 2026-05-05 16:53 | -3.53565 | -39.69653 | 11987 ft | 252 kts | 282° |
| 2026-05-05 16:53 | -3.53209 | -39.71366 | 11994 ft | 251 kts | 282° |
| 2026-05-05 16:53 | -3.52856 | -39.73080 | 11995 ft | 251 kts | 282° |
| 2026-05-05 16:53 | -3.52502 | -39.74793 | 11995 ft | 251 kts | 282° |
| 2026-05-05 16:54 | -3.52147 | -39.76505 | 11995 ft | 251 kts | 282° |
| 2026-05-05 16:54 | -3.51793 | -39.78218 | 11987 ft | 251 kts | 282° |
| 2026-05-05 16:54 | -3.51440 | -39.79931 | 11995 ft | 251 kts | 282° |
| 2026-05-05 16:54 | -3.51086 | -39.81641 | 11991 ft | 251 kts | 282° |
| 2026-05-05 16:55 | -3.50732 | -39.83356 | 11995 ft | 251 kts | 282° |
| 2026-05-05 16:55 | -3.50377 | -39.85066 | 11995 ft | 251 kts | 282° |
| 2026-05-05 16:55 | -3.50023 | -39.86781 | 11983 ft | 252 kts | 282° |
| 2026-05-05 16:55 | -3.49667 | -39.88494 | 11992 ft | 252 kts | 282° |
| 2026-05-05 16:56 | -3.49313 | -39.90209 | 11994 ft | 252 kts | 282° |
| 2026-05-05 16:56 | -3.48959 | -39.91923 | 11994 ft | 251 kts | 282° |
| 2026-05-05 16:56 | -3.48720 | -39.93080 | 11995 ft | 251 kts | 282° |
| 2026-05-05 16:56 | -3.48365 | -39.94792 | 11988 ft | 251 kts | 282° |
| 2026-05-05 16:57 | -3.48010 | -39.96505 | 11994 ft | 251 kts | 282° |
| 2026-05-05 16:57 | -3.47656 | -39.98215 | 11995 ft | 251 kts | 282° |
| 2026-05-05 16:57 | -3.47302 | -39.99928 | 11996 ft | 251 kts | 282° |
| 2026-05-05 16:57 | -3.46947 | -40.01641 | 11994 ft | 251 kts | 282° |
| 2026-05-05 16:58 | -3.46593 | -40.03352 | 11991 ft | 251 kts | 282° |
| 2026-05-05 16:58 | -3.46238 | -40.05064 | 11995 ft | 251 kts | 282° |
| 2026-05-05 16:58 | -3.45885 | -40.06776 | 11995 ft | 251 kts | 282° |
| 2026-05-05 16:58 | -3.45531 | -40.08486 | 11989 ft | 251 kts | 282° |
| 2026-05-05 16:59 | -3.45175 | -40.10200 | 11994 ft | 251 kts | 282° |
| 2026-05-05 16:59 | -3.44820 | -40.11914 | 11994 ft | 251 kts | 282° |
| 2026-05-05 16:59 | -3.44465 | -40.13625 | 11989 ft | 251 kts | 282° |
| 2026-05-05 16:59 | -3.44111 | -40.15338 | 11994 ft | 251 kts | 282° |
| 2026-05-05 17:00 | -3.43756 | -40.17050 | 11994 ft | 251 kts | 282° |
| 2026-05-05 17:00 | -3.43401 | -40.18763 | 11989 ft | 251 kts | 282° |
| 2026-05-05 17:00 | -3.43046 | -40.20477 | 11993 ft | 252 kts | 282° |
| 2026-05-05 17:00 | -3.42690 | -40.22191 | 11995 ft | 252 kts | 282° |
| 2026-05-05 17:01 | -3.42335 | -40.23903 | 11989 ft | 252 kts | 282° |
| 2026-05-05 17:01 | -3.41981 | -40.25616 | 11994 ft | 251 kts | 282° |
| 2026-05-05 17:01 | -3.41626 | -40.27329 | 11990 ft | 251 kts | 282° |
| 2026-05-05 17:01 | -3.41270 | -40.29042 | 11989 ft | 251 kts | 282° |
| 2026-05-05 17:02 | -3.40915 | -40.30754 | 11994 ft | 251 kts | 282° |
| 2026-05-05 17:02 | -3.40560 | -40.32466 | 11995 ft | 251 kts | 282° |
| 2026-05-05 17:02 | -3.40205 | -40.34179 | 11989 ft | 251 kts | 282° |
| 2026-05-05 17:02 | -3.39850 | -40.35889 | 11995 ft | 251 kts | 282° |
| 2026-05-05 17:03 | -3.39495 | -40.37601 | 11994 ft | 251 kts | 282° |
| 2026-05-05 17:03 | -3.39140 | -40.39314 | 11986 ft | 251 kts | 282° |
| 2026-05-05 17:03 | -3.38785 | -40.41026 | 11994 ft | 251 kts | 282° |
| 2026-05-05 17:03 | -3.38424 | -40.42761 | 11994 ft | 251 kts | 282° |
| 2026-05-05 17:04 | -3.38070 | -40.44474 | 11991 ft | 251 kts | 282° |
| 2026-05-05 17:04 | -3.37714 | -40.46187 | 11983 ft | 252 kts | 282° |
| 2026-05-05 17:04 | -3.37358 | -40.47899 | 11991 ft | 252 kts | 282° |
| 2026-05-05 17:04 | -3.37003 | -40.49616 | 11992 ft | 252 kts | 282° |
| 2026-05-05 17:05 | -3.36645 | -40.51328 | 11992 ft | 252 kts | 282° |
| 2026-05-05 17:05 | -3.36291 | -40.53042 | 11994 ft | 252 kts | 282° |
| 2026-05-05 17:05 | -3.35939 | -40.54758 | 11995 ft | 252 kts | 282° |
| 2026-05-05 17:05 | -3.35586 | -40.56474 | 11994 ft | 252 kts | 282° |
| 2026-05-05 17:06 | -3.35233 | -40.58190 | 11996 ft | 252 kts | 282° |
| 2026-05-05 17:06 | -3.34880 | -40.59907 | 11993 ft | 252 kts | 282° |
| 2026-05-05 17:06 | -3.34526 | -40.61622 | 11996 ft | 252 kts | 282° |
| 2026-05-05 17:06 | -3.34172 | -40.63338 | 11986 ft | 252 kts | 282° |
| 2026-05-05 17:07 | -3.33819 | -40.65052 | 11995 ft | 252 kts | 282° |
| 2026-05-05 17:07 | -3.33466 | -40.66770 | 11988 ft | 252 kts | 282° |
| 2026-05-05 17:07 | -3.33113 | -40.68486 | 11995 ft | 252 kts | 282° |
| 2026-05-05 17:07 | -3.32760 | -40.70200 | 11990 ft | 252 kts | 282° |
| 2026-05-05 17:08 | -3.32406 | -40.71915 | 11995 ft | 252 kts | 282° |
| 2026-05-05 17:08 | -3.32053 | -40.73631 | 11987 ft | 252 kts | 282° |
| 2026-05-05 17:08 | -3.31700 | -40.75343 | 11995 ft | 251 kts | 282° |
| 2026-05-05 17:08 | -3.31347 | -40.77057 | 11995 ft | 251 kts | 282° |
| 2026-05-05 17:09 | -3.30994 | -40.78771 | 11994 ft | 251 kts | 282° |
| 2026-05-05 17:09 | -3.30641 | -40.80484 | 11994 ft | 251 kts | 282° |
| 2026-05-05 17:09 | -3.30289 | -40.82197 | 11995 ft | 251 kts | 282° |
| 2026-05-05 17:09 | -3.29935 | -40.83910 | 11994 ft | 251 kts | 282° |
| 2026-05-05 17:10 | -3.29580 | -40.85623 | 11996 ft | 251 kts | 282° |
| 2026-05-05 17:10 | -3.29228 | -40.87337 | 11995 ft | 251 kts | 282° |
| 2026-05-05 17:10 | -3.28876 | -40.89049 | 11994 ft | 252 kts | 282° |
| 2026-05-05 17:10 | -3.28522 | -40.90762 | 11996 ft | 251 kts | 282° |
| 2026-05-05 17:11 | -3.28162 | -40.92498 | 11994 ft | 252 kts | 282° |
| 2026-05-05 17:11 | -3.27808 | -40.94212 | 11996 ft | 251 kts | 282° |
| 2026-05-05 17:11 | -3.27454 | -40.95927 | 11994 ft | 252 kts | 282° |
| 2026-05-05 17:11 | -3.27099 | -40.97642 | 11988 ft | 252 kts | 282° |
| 2026-05-05 17:12 | -3.26744 | -40.99356 | 11996 ft | 252 kts | 282° |
| 2026-05-05 17:12 | -3.26392 | -41.01070 | 11996 ft | 251 kts | 282° |
| 2026-05-05 17:12 | -3.26038 | -41.02782 | 11996 ft | 251 kts | 282° |
| 2026-05-05 17:12 | -3.25683 | -41.04495 | 11994 ft | 252 kts | 282° |
| 2026-05-05 17:13 | -3.25328 | -41.06210 | 11988 ft | 252 kts | 282° |
| 2026-05-05 17:13 | -3.24973 | -41.07923 | 11996 ft | 251 kts | 282° |
| 2026-05-05 17:13 | -3.24620 | -41.09637 | 11994 ft | 251 kts | 282° |
| 2026-05-05 17:13 | -3.24265 | -41.11350 | 11997 ft | 251 kts | 282° |
| 2026-05-05 17:14 | -3.23911 | -41.13063 | 11994 ft | 251 kts | 282° |
| 2026-05-05 17:14 | -3.23557 | -41.14777 | 11989 ft | 252 kts | 282° |
| 2026-05-05 17:14 | -3.23203 | -41.16489 | 11994 ft | 252 kts | 282° |
| 2026-05-05 17:14 | -3.22848 | -41.18203 | 11995 ft | 251 kts | 282° |
| 2026-05-05 17:15 | -3.22493 | -41.19917 | 11989 ft | 251 kts | 282° |
| 2026-05-05 17:15 | -3.22138 | -41.21631 | 11994 ft | 252 kts | 282° |
| 2026-05-05 17:15 | -3.21783 | -41.23346 | 11995 ft | 252 kts | 282° |
| 2026-05-05 17:15 | -3.21428 | -41.25060 | 11990 ft | 252 kts | 282° |
| 2026-05-05 17:16 | -3.21074 | -41.26776 | 11994 ft | 252 kts | 282° |
| 2026-05-05 17:16 | -3.20719 | -41.28489 | 11992 ft | 251 kts | 282° |
| 2026-05-05 17:16 | -3.20364 | -41.30201 | 11984 ft | 251 kts | 282° |
| 2026-05-05 17:16 | -3.20011 | -41.31913 | 11995 ft | 251 kts | 282° |
| 2026-05-05 17:17 | -3.19657 | -41.33624 | 11989 ft | 251 kts | 282° |
| 2026-05-05 17:17 | -3.19301 | -41.35334 | 11994 ft | 251 kts | 282° |
| 2026-05-05 17:17 | -3.18947 | -41.37045 | 11994 ft | 251 kts | 282° |
| 2026-05-05 17:17 | -3.18593 | -41.38755 | 11997 ft | 251 kts | 282° |
| 2026-05-05 17:18 | -3.18239 | -41.40467 | 11994 ft | 251 kts | 282° |
| 2026-05-05 17:18 | -3.17880 | -41.42200 | 11996 ft | 251 kts | 282° |
| 2026-05-05 17:18 | -3.17525 | -41.43912 | 11995 ft | 251 kts | 282° |
| 2026-05-05 17:18 | -3.17170 | -41.45624 | 11995 ft | 251 kts | 282° |
| 2026-05-05 17:19 | -3.16815 | -41.47336 | 11995 ft | 251 kts | 282° |
| 2026-05-05 17:19 | -3.16461 | -41.49047 | 11992 ft | 251 kts | 282° |
| 2026-05-05 17:19 | -3.16107 | -41.50758 | 11994 ft | 251 kts | 282° |
| 2026-05-05 17:19 | -3.15752 | -41.52467 | 11990 ft | 251 kts | 282° |
| 2026-05-05 17:20 | -3.15398 | -41.54178 | 11988 ft | 251 kts | 282° |
| 2026-05-05 17:20 | -3.15043 | -41.55887 | 11994 ft | 251 kts | 282° |
| 2026-05-05 17:20 | -3.14689 | -41.57596 | 11988 ft | 251 kts | 282° |
| 2026-05-05 17:20 | -3.14334 | -41.59311 | 11995 ft | 251 kts | 282° |
| 2026-05-05 17:21 | -3.13978 | -41.61023 | 11994 ft | 251 kts | 282° |
| 2026-05-05 17:21 | -3.13623 | -41.62734 | 11995 ft | 251 kts | 282° |
| 2026-05-05 17:21 | -3.13270 | -41.64444 | 11995 ft | 251 kts | 282° |
| 2026-05-05 17:22 | -3.12560 | -41.67867 | 11987 ft | 251 kts | 282° |
| 2026-05-05 17:22 | -3.12205 | -41.69579 | 11995 ft | 251 kts | 282° |
| 2026-05-05 17:22 | -3.11848 | -41.71291 | 11995 ft | 251 kts | 282° |
| 2026-05-05 17:22 | -3.11494 | -41.73004 | 11991 ft | 251 kts | 282° |
| 2026-05-05 17:23 | -3.11138 | -41.74716 | 11995 ft | 251 kts | 282° |
| 2026-05-05 17:23 | -3.10784 | -41.76425 | 11995 ft | 251 kts | 282° |
| 2026-05-05 17:23 | -3.10429 | -41.78137 | 11989 ft | 252 kts | 282° |
| 2026-05-05 17:23 | -3.10080 | -41.79855 | 11997 ft | 252 kts | 282° |
| 2026-05-05 17:24 | -3.09733 | -41.81572 | 11994 ft | 252 kts | 282° |
| 2026-05-05 17:24 | -3.09384 | -41.83287 | 11994 ft | 251 kts | 282° |
| 2026-05-05 17:24 | -3.09030 | -41.85024 | 11991 ft | 251 kts | 282° |
| 2026-05-05 17:24 | -3.08681 | -41.86739 | 11995 ft | 252 kts | 282° |
| 2026-05-05 17:25 | -3.08332 | -41.88454 | 11994 ft | 252 kts | 282° |
| 2026-05-05 17:25 | -3.08101 | -41.89589 | 11995 ft | 251 kts | 282° |
| 2026-05-05 17:25 | -3.07634 | -41.91883 | 11994 ft | 252 kts | 282° |
| 2026-05-05 17:25 | -3.07285 | -41.93595 | 11993 ft | 251 kts | 282° |
| 2026-05-05 17:26 | -3.06937 | -41.95309 | 11994 ft | 251 kts | 282° |
| 2026-05-05 17:26 | -3.06587 | -41.97022 | 11983 ft | 251 kts | 282° |
| 2026-05-05 17:26 | -3.06237 | -41.98737 | 11992 ft | 252 kts | 282° |
| 2026-05-05 17:26 | -3.05889 | -42.00453 | 11995 ft | 252 kts | 282° |
| 2026-05-05 17:27 | -3.05540 | -42.02169 | 11994 ft | 252 kts | 282° |
| 2026-05-05 17:27 | -3.05189 | -42.03885 | 11989 ft | 252 kts | 282° |
| 2026-05-05 17:27 | -3.04840 | -42.05598 | 11994 ft | 251 kts | 282° |
| 2026-05-05 17:27 | -3.04491 | -42.07313 | 11995 ft | 252 kts | 282° |
| 2026-05-05 17:28 | -3.04142 | -42.09027 | 11995 ft | 252 kts | 282° |
| 2026-05-05 17:28 | -3.03792 | -42.10743 | 11991 ft | 252 kts | 282° |
| 2026-05-05 17:28 | -3.03442 | -42.12460 | 11994 ft | 252 kts | 282° |
| 2026-05-05 17:28 | -3.03091 | -42.14179 | 11995 ft | 252 kts | 282° |
| 2026-05-05 17:29 | -3.02884 | -42.15319 | 11988 ft | 252 kts | 279° |
| 2026-05-05 17:29 | -3.02623 | -42.17074 | 11994 ft | 252 kts | 279° |
| 2026-05-05 17:29 | -3.02351 | -42.18802 | 11994 ft | 251 kts | 280° |
| 2026-05-05 17:29 | -3.02076 | -42.20530 | 11994 ft | 251 kts | 279° |
| 2026-05-05 17:30 | -3.01809 | -42.22255 | 11995 ft | 251 kts | 279° |
| 2026-05-05 17:30 | -3.01541 | -42.23985 | 11993 ft | 252 kts | 279° |
| 2026-05-05 17:30 | -3.01271 | -42.25715 | 11991 ft | 252 kts | 279° |
| 2026-05-05 17:30 | -3.01001 | -42.27446 | 11994 ft | 252 kts | 279° |
| 2026-05-05 17:31 | -3.00734 | -42.29174 | 11994 ft | 251 kts | 279° |
| 2026-05-05 17:31 | -3.00465 | -42.30901 | 11989 ft | 251 kts | 279° |
| 2026-05-05 17:31 | -3.00196 | -42.32628 | 11995 ft | 251 kts | 279° |
| 2026-05-05 17:31 | -2.99928 | -42.34354 | 11994 ft | 251 kts | 279° |
| 2026-05-05 17:32 | -2.99659 | -42.36079 | 11988 ft | 251 kts | 279° |
| 2026-05-05 17:32 | -2.99391 | -42.37806 | 11994 ft | 251 kts | 279° |
| 2026-05-05 17:32 | -2.99122 | -42.39533 | 11995 ft | 251 kts | 279° |
| 2026-05-05 17:32 | -2.98853 | -42.41261 | 11996 ft | 251 kts | 279° |
| 2026-05-05 17:33 | -2.98584 | -42.42990 | 11993 ft | 252 kts | 279° |
| 2026-05-05 17:33 | -2.98314 | -42.44720 | 11995 ft | 252 kts | 279° |
| 2026-05-05 17:33 | -2.98045 | -42.46451 | 11994 ft | 252 kts | 279° |
| 2026-05-05 17:33 | -2.97777 | -42.48178 | 11995 ft | 252 kts | 279° |
| 2026-05-05 17:34 | -2.97507 | -42.49909 | 11994 ft | 252 kts | 279° |
| 2026-05-05 17:34 | -2.97236 | -42.51639 | 11994 ft | 252 kts | 279° |
| 2026-05-05 17:34 | -2.96968 | -42.53367 | 11996 ft | 251 kts | 279° |
| 2026-05-05 17:34 | -2.96701 | -42.55096 | 11994 ft | 251 kts | 279° |
| 2026-05-05 17:35 | -2.96431 | -42.56825 | 11995 ft | 252 kts | 279° |
| 2026-05-05 17:35 | -2.96160 | -42.58554 | 11995 ft | 252 kts | 279° |
| 2026-05-05 17:35 | -2.95889 | -42.60287 | 11988 ft | 252 kts | 279° |
| 2026-05-05 17:35 | -2.95621 | -42.62017 | 11995 ft | 252 kts | 279° |
| 2026-05-05 17:36 | -2.95352 | -42.63747 | 11994 ft | 252 kts | 279° |
| 2026-05-05 17:36 | -2.95077 | -42.65499 | 11994 ft | 252 kts | 279° |
| 2026-05-05 17:36 | -2.94812 | -42.67204 | 11994 ft | 252 kts | 279° |
| 2026-05-05 17:36 | -2.94539 | -42.68958 | 11995 ft | 251 kts | 279° |
| 2026-05-05 17:37 | -2.94269 | -42.70687 | 11993 ft | 251 kts | 279° |
| 2026-05-05 17:37 | -2.94001 | -42.72416 | 11993 ft | 251 kts | 279° |
| 2026-05-05 17:37 | -2.93731 | -42.74141 | 11996 ft | 251 kts | 279° |
| 2026-05-05 17:37 | -2.93461 | -42.75869 | 11987 ft | 252 kts | 279° |
| 2026-05-05 17:38 | -2.93191 | -42.77599 | 11995 ft | 252 kts | 279° |
| 2026-05-05 17:38 | -2.92922 | -42.79329 | 11987 ft | 252 kts | 279° |
| 2026-05-05 17:38 | -2.92653 | -42.81058 | 11994 ft | 252 kts | 279° |
| 2026-05-05 17:38 | -2.92381 | -42.82788 | 11995 ft | 252 kts | 279° |
| 2026-05-05 17:39 | -2.92112 | -42.84516 | 11995 ft | 252 kts | 279° |
| 2026-05-05 17:39 | -2.91843 | -42.86245 | 11990 ft | 252 kts | 279° |
| 2026-05-05 17:39 | -2.91572 | -42.87975 | 11995 ft | 252 kts | 279° |
| 2026-05-05 17:39 | -2.91304 | -42.89703 | 11996 ft | 252 kts | 279° |
| 2026-05-05 17:40 | -2.91033 | -42.91434 | 11993 ft | 252 kts | 279° |
| 2026-05-05 17:40 | -2.90761 | -42.93162 | 11994 ft | 252 kts | 279° |
| 2026-05-05 17:40 | -2.90493 | -42.94893 | 11993 ft | 252 kts | 279° |
| 2026-05-05 17:40 | -2.90222 | -42.96625 | 11994 ft | 252 kts | 279° |
| 2026-05-05 17:41 | -2.89953 | -42.98354 | 11994 ft | 252 kts | 279° |
| 2026-05-05 17:41 | -2.89682 | -43.00085 | 11988 ft | 252 kts | 279° |
| 2026-05-05 17:41 | -2.89413 | -43.01814 | 11993 ft | 251 kts | 279° |
| 2026-05-05 17:41 | -2.89142 | -43.03542 | 11994 ft | 252 kts | 279° |
| 2026-05-05 17:42 | -2.88873 | -43.05272 | 11995 ft | 252 kts | 279° |
| 2026-05-05 17:42 | -2.88601 | -43.07003 | 11994 ft | 252 kts | 279° |
| 2026-05-05 17:42 | -2.88327 | -43.08757 | 11997 ft | 252 kts | 279° |
| 2026-05-05 17:42 | -2.88055 | -43.10487 | 11996 ft | 252 kts | 279° |
| 2026-05-05 17:43 | -2.87785 | -43.12220 | 11995 ft | 252 kts | 279° |
| 2026-05-05 17:43 | -2.87516 | -43.13951 | 11993 ft | 252 kts | 279° |
| 2026-05-05 17:43 | -2.87245 | -43.15682 | 11994 ft | 252 kts | 279° |
| 2026-05-05 17:43 | -2.86975 | -43.17411 | 11987 ft | 251 kts | 279° |
| 2026-05-05 17:44 | -2.86705 | -43.19138 | 11993 ft | 251 kts | 279° |
| 2026-05-05 17:44 | -2.86435 | -43.20864 | 11994 ft | 251 kts | 279° |
| 2026-05-05 17:44 | -2.86164 | -43.22590 | 11993 ft | 251 kts | 279° |
| 2026-05-05 17:44 | -2.85896 | -43.24318 | 11991 ft | 251 kts | 279° |
| 2026-05-05 17:45 | -2.85623 | -43.26043 | 11996 ft | 251 kts | 279° |
| 2026-05-05 17:45 | -2.85355 | -43.27771 | 11994 ft | 251 kts | 279° |
| 2026-05-05 17:45 | -2.85085 | -43.29498 | 11994 ft | 251 kts | 279° |
| 2026-05-05 17:45 | -2.84816 | -43.31225 | 11990 ft | 251 kts | 279° |
| 2026-05-05 17:46 | -2.84544 | -43.32953 | 11988 ft | 252 kts | 279° |
| 2026-05-05 17:46 | -2.84272 | -43.34680 | 11995 ft | 251 kts | 279° |
| 2026-05-05 17:46 | -2.84002 | -43.36409 | 11995 ft | 252 kts | 279° |
| 2026-05-05 17:46 | -2.83733 | -43.38139 | 11993 ft | 252 kts | 279° |
| 2026-05-05 17:47 | -2.83462 | -43.39866 | 11991 ft | 251 kts | 279° |
| 2026-05-05 17:47 | -2.83192 | -43.41593 | 11995 ft | 251 kts | 279° |
| 2026-05-05 17:47 | -2.82921 | -43.43318 | 11996 ft | 252 kts | 279° |
| 2026-05-05 17:47 | -2.82649 | -43.45050 | 11995 ft | 252 kts | 279° |
| 2026-05-05 17:48 | -2.82380 | -43.46779 | 11992 ft | 252 kts | 279° |
| 2026-05-05 17:48 | -2.82110 | -43.48510 | 11991 ft | 252 kts | 279° |
| 2026-05-05 17:48 | -2.81836 | -43.50241 | 11990 ft | 252 kts | 279° |
| 2026-05-05 17:48 | -2.81565 | -43.51973 | 11993 ft | 252 kts | 279° |
| 2026-05-05 17:49 | -2.81295 | -43.53703 | 11993 ft | 252 kts | 279° |
| 2026-05-05 17:49 | -2.81020 | -43.55457 | 11996 ft | 252 kts | 279° |
| 2026-05-05 17:49 | -2.80749 | -43.57189 | 11994 ft | 252 kts | 279° |
| 2026-05-05 17:49 | -2.80479 | -43.58919 | 11994 ft | 252 kts | 279° |
| 2026-05-05 17:50 | -2.80207 | -43.60649 | 11988 ft | 252 kts | 279° |
| 2026-05-05 17:50 | -2.79934 | -43.62379 | 11995 ft | 252 kts | 279° |
| 2026-05-05 17:50 | -2.79664 | -43.64110 | 11994 ft | 252 kts | 279° |
| 2026-05-05 17:50 | -2.79393 | -43.65839 | 11995 ft | 252 kts | 279° |
| 2026-05-05 17:51 | -2.79123 | -43.67570 | 11995 ft | 252 kts | 279° |
| 2026-05-05 17:51 | -2.78850 | -43.69300 | 11995 ft | 252 kts | 279° |
| 2026-05-05 17:51 | -2.78578 | -43.71029 | 11995 ft | 251 kts | 279° |
| 2026-05-05 17:51 | -2.78307 | -43.72757 | 11990 ft | 251 kts | 279° |
| 2026-05-05 17:52 | -2.78039 | -43.74483 | 11994 ft | 251 kts | 279° |
| 2026-05-05 17:52 | -2.77767 | -43.76212 | 11995 ft | 252 kts | 279° |
| 2026-05-05 17:52 | -2.77495 | -43.77939 | 11993 ft | 251 kts | 279° |
| 2026-05-05 17:52 | -2.77224 | -43.79667 | 11993 ft | 252 kts | 279° |
| 2026-05-05 17:53 | -2.76953 | -43.81395 | 11989 ft | 251 kts | 279° |
| 2026-05-05 17:53 | -2.76683 | -43.83121 | 11987 ft | 251 kts | 279° |
| 2026-05-05 17:53 | -2.76412 | -43.84849 | 11995 ft | 252 kts | 279° |
| 2026-05-05 17:53 | -2.76138 | -43.86580 | 11993 ft | 252 kts | 279° |
| 2026-05-05 17:54 | -2.75867 | -43.88310 | 11995 ft | 252 kts | 279° |
| 2026-05-05 17:54 | -2.75597 | -43.90041 | 11994 ft | 252 kts | 279° |
| 2026-05-05 17:54 | -2.75326 | -43.91766 | 11994 ft | 251 kts | 279° |
| 2026-05-05 17:54 | -2.75054 | -43.93494 | 11994 ft | 251 kts | 279° |
| 2026-05-05 17:55 | -2.74779 | -43.95243 | 11994 ft | 251 kts | 279° |
| 2026-05-05 17:55 | -2.74508 | -43.96969 | 11986 ft | 251 kts | 279° |
| 2026-05-05 17:55 | -2.74238 | -43.98695 | 11995 ft | 251 kts | 279° |
| 2026-05-05 17:55 | -2.73968 | -44.00422 | 11995 ft | 251 kts | 279° |
| 2026-05-05 17:56 | -2.73694 | -44.02151 | 11993 ft | 252 kts | 279° |
| 2026-05-05 17:56 | -2.73422 | -44.03880 | 11990 ft | 252 kts | 279° |
| 2026-05-05 17:56 | -2.73151 | -44.05608 | 11994 ft | 252 kts | 279° |
| 2026-05-05 17:56 | -2.72879 | -44.07336 | 11990 ft | 251 kts | 279° |
| 2026-05-05 17:57 | -2.72609 | -44.09062 | 11986 ft | 251 kts | 279° |
| 2026-05-05 17:57 | -2.72337 | -44.10787 | 11994 ft | 251 kts | 279° |
| 2026-05-05 17:57 | -2.72066 | -44.12511 | 11994 ft | 251 kts | 279° |
| 2026-05-05 17:57 | -2.71795 | -44.14235 | 11995 ft | 251 kts | 279° |
| 2026-05-05 17:58 | -2.71525 | -44.15957 | 11994 ft | 251 kts | 279° |
| 2026-05-05 17:58 | -2.71254 | -44.17681 | 11990 ft | 251 kts | 279° |
| 2026-05-05 17:58 | -2.70983 | -44.19404 | 11995 ft | 251 kts | 279° |
| 2026-05-05 17:58 | -2.70712 | -44.21128 | 11993 ft | 251 kts | 279° |
| 2026-05-05 17:59 | -2.70441 | -44.22851 | 11997 ft | 251 kts | 279° |
| 2026-05-05 17:59 | -2.70168 | -44.24580 | 11995 ft | 252 kts | 279° |
| 2026-05-05 17:59 | -2.69895 | -44.26311 | 11993 ft | 252 kts | 279° |
| 2026-05-05 17:59 | -2.69624 | -44.28041 | 11991 ft | 251 kts | 279° |
| 2026-05-05 18:00 | -2.69353 | -44.29768 | 11988 ft | 251 kts | 279° |
| 2026-05-05 18:00 | -2.69081 | -44.31495 | 11996 ft | 252 kts | 279° |
| 2026-05-05 18:00 | -2.68808 | -44.33225 | 11987 ft | 252 kts | 279° |
| 2026-05-05 18:00 | -2.68536 | -44.34952 | 11995 ft | 251 kts | 279° |
| 2026-05-05 18:01 | -2.68266 | -44.36678 | 11994 ft | 252 kts | 279° |
| 2026-05-05 18:01 | -2.68082 | -44.37845 | 11994 ft | 251 kts | 279° |
| 2026-05-05 18:01 | -2.67809 | -44.39573 | 11994 ft | 251 kts | 279° |
| 2026-05-05 18:01 | -2.67538 | -44.41298 | 11989 ft | 251 kts | 279° |
| 2026-05-05 18:02 | -2.67266 | -44.43022 | 11991 ft | 251 kts | 279° |
| 2026-05-05 18:02 | -2.66995 | -44.44746 | 11995 ft | 251 kts | 279° |
| 2026-05-05 18:02 | -2.66724 | -44.46468 | 11994 ft | 251 kts | 279° |
| 2026-05-05 18:02 | -2.66453 | -44.48191 | 11994 ft | 251 kts | 279° |
| 2026-05-05 18:03 | -2.66181 | -44.49915 | 11994 ft | 251 kts | 279° |
| 2026-05-05 18:03 | -2.65909 | -44.51638 | 11994 ft | 251 kts | 279° |
| 2026-05-05 18:03 | -2.65638 | -44.53362 | 11990 ft | 251 kts | 279° |
| 2026-05-05 18:03 | -2.65366 | -44.55085 | 11986 ft | 251 kts | 279° |
| 2026-05-05 18:04 | -2.65095 | -44.56808 | 11994 ft | 251 kts | 279° |
| 2026-05-05 18:04 | -2.64824 | -44.58530 | 11994 ft | 251 kts | 279° |
| 2026-05-05 18:04 | -2.64552 | -44.60253 | 11996 ft | 251 kts | 279° |
| 2026-05-05 18:04 | -2.64280 | -44.61980 | 11995 ft | 252 kts | 279° |
| 2026-05-05 18:05 | -2.64007 | -44.63709 | 11993 ft | 252 kts | 279° |
| 2026-05-05 18:05 | -2.63735 | -44.65438 | 11994 ft | 252 kts | 279° |
| 2026-05-05 18:05 | -2.63463 | -44.67167 | 11990 ft | 252 kts | 279° |
| 2026-05-05 18:05 | -2.63188 | -44.68897 | 11995 ft | 252 kts | 279° |
| 2026-05-05 18:06 | -2.62916 | -44.70627 | 11990 ft | 252 kts | 279° |
| 2026-05-05 18:06 | -2.62732 | -44.71797 | 11987 ft | 252 kts | 279° |
| 2026-05-05 18:06 | -2.62372 | -44.74084 | 11985 ft | 251 kts | 279° |
| 2026-05-05 18:06 | -2.62099 | -44.75810 | 11994 ft | 251 kts | 279° |
| 2026-05-05 18:07 | -2.61826 | -44.77536 | 11995 ft | 251 kts | 279° |
| 2026-05-05 18:07 | -2.61555 | -44.79264 | 11995 ft | 252 kts | 279° |
| 2026-05-05 18:07 | -2.61279 | -44.81014 | 11994 ft | 251 kts | 279° |
| 2026-05-05 18:07 | -2.61006 | -44.82739 | 11994 ft | 251 kts | 279° |
| 2026-05-05 18:08 | -2.60733 | -44.84467 | 11994 ft | 252 kts | 279° |
| 2026-05-05 18:08 | -2.60460 | -44.86196 | 11995 ft | 252 kts | 279° |
| 2026-05-05 18:08 | -2.60189 | -44.87923 | 11995 ft | 251 kts | 279° |
| 2026-05-05 18:08 | -2.59916 | -44.89649 | 11995 ft | 251 kts | 279° |
| 2026-05-05 18:09 | -2.59644 | -44.91375 | 11994 ft | 251 kts | 279° |
| 2026-05-05 18:09 | -2.59372 | -44.93101 | 11993 ft | 251 kts | 279° |
| 2026-05-05 18:09 | -2.59098 | -44.94828 | 11995 ft | 251 kts | 279° |
| 2026-05-05 18:09 | -2.58824 | -44.96557 | 11994 ft | 252 kts | 279° |
| 2026-05-05 18:10 | -2.58552 | -44.98285 | 11994 ft | 252 kts | 279° |
| 2026-05-05 18:10 | -2.58279 | -45.00014 | 11994 ft | 251 kts | 279° |
| 2026-05-05 18:10 | -2.58006 | -45.01739 | 11996 ft | 251 kts | 279° |
| 2026-05-05 18:10 | -2.57734 | -45.03466 | 11990 ft | 251 kts | 279° |
| 2026-05-05 18:11 | -2.57461 | -45.05193 | 11988 ft | 252 kts | 279° |
| 2026-05-05 18:11 | -2.57188 | -45.06923 | 11988 ft | 252 kts | 279° |
| 2026-05-05 18:11 | -2.56914 | -45.08654 | 11987 ft | 252 kts | 279° |
| 2026-05-05 18:11 | -2.56642 | -45.10382 | 11986 ft | 252 kts | 279° |
| 2026-05-05 18:12 | -2.56368 | -45.12109 | 11981 ft | 252 kts | 279° |
| 2026-05-05 18:12 | -2.56094 | -45.13839 | 11990 ft | 252 kts | 279° |
| 2026-05-05 18:12 | -2.55822 | -45.15567 | 11994 ft | 252 kts | 279° |
| 2026-05-05 18:12 | -2.55549 | -45.17297 | 11994 ft | 252 kts | 279° |
| 2026-05-05 18:13 | -2.55273 | -45.19030 | 11988 ft | 252 kts | 279° |
| 2026-05-05 18:13 | -2.55000 | -45.20762 | 11988 ft | 252 kts | 279° |
| 2026-05-05 18:13 | -2.54728 | -45.22489 | 11994 ft | 251 kts | 279° |
| 2026-05-05 18:13 | -2.54454 | -45.24215 | 11994 ft | 251 kts | 279° |
| 2026-05-05 18:14 | -2.54181 | -45.25942 | 11995 ft | 252 kts | 279° |
| 2026-05-05 18:14 | -2.53909 | -45.27670 | 11995 ft | 251 kts | 279° |
| 2026-05-05 18:14 | -2.53636 | -45.29396 | 11995 ft | 251 kts | 279° |
| 2026-05-05 18:14 | -2.53363 | -45.31121 | 11994 ft | 251 kts | 279° |
| 2026-05-05 18:15 | -2.53086 | -45.32870 | 11995 ft | 251 kts | 279° |
| 2026-05-05 18:15 | -2.52813 | -45.34594 | 11993 ft | 251 kts | 279° |
| 2026-05-05 18:15 | -2.52541 | -45.36320 | 11993 ft | 251 kts | 279° |
| 2026-05-05 18:15 | -2.52267 | -45.38045 | 11993 ft | 251 kts | 279° |
| 2026-05-05 18:16 | -2.51994 | -45.39771 | 11995 ft | 251 kts | 279° |
| 2026-05-05 18:16 | -2.51721 | -45.41497 | 11993 ft | 251 kts | 279° |
| 2026-05-05 18:16 | -2.51447 | -45.43223 | 11995 ft | 251 kts | 279° |
| 2026-05-05 18:16 | -2.51175 | -45.44948 | 11993 ft | 251 kts | 279° |
| 2026-05-05 18:17 | -2.50901 | -45.46672 | 11994 ft | 251 kts | 279° |
| 2026-05-05 18:17 | -2.50629 | -45.48397 | 11994 ft | 252 kts | 279° |
| 2026-05-05 18:17 | -2.50355 | -45.50125 | 11995 ft | 251 kts | 279° |
| 2026-05-05 18:17 | -2.50082 | -45.51852 | 11993 ft | 251 kts | 279° |
| 2026-05-05 18:18 | -2.49809 | -45.53577 | 11994 ft | 251 kts | 279° |
| 2026-05-05 18:18 | -2.49534 | -45.55302 | 11995 ft | 252 kts | 279° |
| 2026-05-05 18:18 | -2.49261 | -45.57033 | 11994 ft | 252 kts | 279° |
| 2026-05-05 18:18 | -2.48987 | -45.58763 | 11994 ft | 252 kts | 279° |
| 2026-05-05 18:19 | -2.48713 | -45.60491 | 11996 ft | 252 kts | 279° |
| 2026-05-05 18:19 | -2.48439 | -45.62220 | 11996 ft | 252 kts | 279° |
| 2026-05-05 18:19 | -2.48166 | -45.63946 | 11994 ft | 251 kts | 279° |
| 2026-05-05 18:19 | -2.47893 | -45.65674 | 11995 ft | 252 kts | 279° |
| 2026-05-05 18:20 | -2.47618 | -45.67401 | 11996 ft | 251 kts | 280° |
| 2026-05-05 18:20 | -2.47344 | -45.69128 | 11994 ft | 251 kts | 279° |
| 2026-05-05 18:20 | -2.47071 | -45.70855 | 11994 ft | 252 kts | 279° |
| 2026-05-05 18:20 | -2.46798 | -45.72581 | 11995 ft | 252 kts | 279° |
| 2026-05-05 18:21 | -2.46523 | -45.74310 | 11994 ft | 252 kts | 279° |
| 2026-05-05 18:21 | -2.46250 | -45.76040 | 11994 ft | 252 kts | 279° |
| 2026-05-05 18:21 | -2.45975 | -45.77769 | 11994 ft | 252 kts | 280° |
| 2026-05-05 18:21 | -2.45699 | -45.79498 | 11996 ft | 252 kts | 279° |
| 2026-05-05 18:22 | -2.45425 | -45.81229 | 11989 ft | 252 kts | 279° |
| 2026-05-05 18:22 | -2.45153 | -45.82958 | 11988 ft | 251 kts | 279° |
| 2026-05-05 18:22 | -2.44879 | -45.84686 | 11986 ft | 252 kts | 279° |
| 2026-05-05 18:22 | -2.44604 | -45.86411 | 11989 ft | 252 kts | 279° |
| 2026-05-05 18:23 | -2.44331 | -45.88140 | 11989 ft | 252 kts | 279° |
| 2026-05-05 18:23 | -2.44056 | -45.89868 | 11988 ft | 252 kts | 279° |
| 2026-05-05 18:23 | -2.43782 | -45.91596 | 11996 ft | 251 kts | 279° |
| 2026-05-05 18:23 | -2.43507 | -45.93324 | 11990 ft | 252 kts | 279° |
| 2026-05-05 18:24 | -2.43233 | -45.95051 | 11994 ft | 251 kts | 279° |
| 2026-05-05 18:24 | -2.42960 | -45.96777 | 11997 ft | 252 kts | 279° |
| 2026-05-05 18:24 | -2.42685 | -45.98507 | 11994 ft | 252 kts | 279° |
| 2026-05-05 18:24 | -2.42410 | -46.00235 | 11995 ft | 252 kts | 279° |
| 2026-05-05 18:25 | -2.42135 | -46.01964 | 11995 ft | 252 kts | 279° |
| 2026-05-05 18:25 | -2.41954 | -46.03108 | 11996 ft | 252 kts | 279° |
| 2026-05-05 18:25 | -2.41588 | -46.05421 | 11994 ft | 251 kts | 279° |
| 2026-05-05 18:25 | -2.41313 | -46.07147 | 11994 ft | 251 kts | 279° |
| 2026-05-05 18:26 | -2.41040 | -46.08875 | 11993 ft | 252 kts | 279° |
| 2026-05-05 18:26 | -2.40765 | -46.10601 | 11995 ft | 252 kts | 279° |
| 2026-05-05 18:26 | -2.40490 | -46.12332 | 11993 ft | 252 kts | 280° |
| 2026-05-05 18:26 | -2.40216 | -46.14059 | 11995 ft | 252 kts | 279° |
| 2026-05-05 18:27 | -2.39939 | -46.15790 | 11992 ft | 252 kts | 279° |
| 2026-05-05 18:27 | -2.39667 | -46.17519 | 11996 ft | 252 kts | 279° |
| 2026-05-05 18:27 | -2.39394 | -46.19244 | 11987 ft | 251 kts | 279° |
| 2026-05-05 18:27 | -2.39116 | -46.20970 | 11992 ft | 251 kts | 280° |
| 2026-05-05 18:28 | -2.38570 | -46.24429 | 11989 ft | 252 kts | 279° |
| 2026-05-05 18:28 | -2.38293 | -46.26159 | 11994 ft | 252 kts | 279° |
| 2026-05-05 18:28 | -2.38019 | -46.27886 | 11995 ft | 251 kts | 279° |
| 2026-05-05 18:29 | -2.37744 | -46.29613 | 11995 ft | 252 kts | 279° |
| 2026-05-05 18:29 | -2.37469 | -46.31343 | 11995 ft | 252 kts | 279° |
| 2026-05-05 18:29 | -2.37195 | -46.33073 | 11995 ft | 252 kts | 279° |
| 2026-05-05 18:29 | -2.36920 | -46.34799 | 11997 ft | 251 kts | 279° |
| 2026-05-05 18:30 | -2.36645 | -46.36527 | 11994 ft | 252 kts | 279° |
| 2026-05-05 18:30 | -2.36365 | -46.38279 | 11996 ft | 252 kts | 279° |
| 2026-05-05 18:30 | -2.36093 | -46.40009 | 11988 ft | 252 kts | 279° |
| 2026-05-05 18:30 | -2.35816 | -46.41740 | 11995 ft | 252 kts | 279° |
| 2026-05-05 18:31 | -2.35540 | -46.43474 | 11997 ft | 252 kts | 279° |
| 2026-05-05 18:31 | -2.35264 | -46.45207 | 11995 ft | 252 kts | 279° |
| 2026-05-05 18:31 | -2.34989 | -46.46936 | 11995 ft | 252 kts | 279° |
| 2026-05-05 18:31 | -2.34714 | -46.48664 | 11987 ft | 252 kts | 279° |
| 2026-05-05 18:32 | -2.34441 | -46.50391 | 11986 ft | 251 kts | 279° |
| 2026-05-05 18:32 | -2.34166 | -46.52114 | 11996 ft | 251 kts | 279° |
| 2026-05-05 18:32 | -2.33891 | -46.53839 | 11992 ft | 251 kts | 279° |
| 2026-05-05 18:32 | -2.33617 | -46.55565 | 11990 ft | 251 kts | 279° |
| 2026-05-05 18:33 | -2.33343 | -46.57290 | 11994 ft | 251 kts | 279° |
| 2026-05-05 18:33 | -2.33067 | -46.59014 | 11994 ft | 251 kts | 279° |
| 2026-05-05 18:33 | -2.32793 | -46.60739 | 11993 ft | 251 kts | 279° |
| 2026-05-05 18:33 | -2.32519 | -46.62463 | 11994 ft | 251 kts | 279° |
| 2026-05-05 18:34 | -2.32243 | -46.64186 | 11994 ft | 252 kts | 279° |
| 2026-05-05 18:34 | -2.31968 | -46.65917 | 11993 ft | 252 kts | 279° |
| 2026-05-05 18:34 | -2.31693 | -46.67658 | 11994 ft | 256 kts | 279° |
| 2026-05-05 18:34 | -2.31407 | -46.69423 | 11995 ft | 258 kts | 280° |
| 2026-05-05 18:35 | -2.31124 | -46.71205 | 11997 ft | 262 kts | 279° |
| 2026-05-05 18:35 | -2.30930 | -46.72424 | 11997 ft | 264 kts | 280° |
| 2026-05-05 18:35 | -2.30637 | -46.74242 | 11996 ft | 266 kts | 279° |
| 2026-05-05 18:35 | -2.30347 | -46.76070 | 11996 ft | 267 kts | 279° |
| 2026-05-05 18:36 | -2.30056 | -46.77904 | 11994 ft | 267 kts | 279° |
| 2026-05-05 18:36 | -2.29763 | -46.79740 | 11994 ft | 268 kts | 280° |
| 2026-05-05 18:36 | -2.29470 | -46.81578 | 11990 ft | 268 kts | 279° |
| 2026-05-05 18:36 | -2.29178 | -46.83415 | 11994 ft | 268 kts | 279° |
| 2026-05-05 18:37 | -2.28885 | -46.85257 | 11993 ft | 268 kts | 279° |
| 2026-05-05 18:37 | -2.28591 | -46.87098 | 11994 ft | 268 kts | 280° |
| 2026-05-05 18:37 | -2.28297 | -46.88940 | 11994 ft | 268 kts | 279° |
| 2026-05-05 18:37 | -2.28003 | -46.90782 | 11990 ft | 268 kts | 279° |
| 2026-05-05 18:38 | -2.27711 | -46.92621 | 11994 ft | 268 kts | 280° |
| 2026-05-05 18:38 | -2.27417 | -46.94457 | 11995 ft | 268 kts | 279° |
| 2026-05-05 18:38 | -2.27126 | -46.96295 | 11991 ft | 268 kts | 279° |
| 2026-05-05 18:38 | -2.26833 | -46.98132 | 11995 ft | 268 kts | 280° |
| 2026-05-05 18:39 | -2.26539 | -46.99972 | 11993 ft | 268 kts | 279° |
| 2026-05-05 18:39 | -2.26246 | -47.01812 | 11988 ft | 268 kts | 280° |
| 2026-05-05 18:39 | -2.25952 | -47.03649 | 11994 ft | 268 kts | 279° |
| 2026-05-05 18:39 | -2.25658 | -47.05487 | 11987 ft | 268 kts | 279° |
| 2026-05-05 18:40 | -2.25362 | -47.07350 | 11995 ft | 268 kts | 279° |
| 2026-05-05 18:40 | -2.25069 | -47.09186 | 11996 ft | 268 kts | 279° |
| 2026-05-05 18:40 | -2.24777 | -47.11027 | 11994 ft | 268 kts | 279° |
| 2026-05-05 18:40 | -2.24483 | -47.12867 | 11994 ft | 268 kts | 280° |
| 2026-05-05 18:41 | -2.24185 | -47.14705 | 11994 ft | 268 kts | 280° |
| 2026-05-05 18:41 | -2.23894 | -47.16545 | 11994 ft | 268 kts | 279° |
| 2026-05-05 18:41 | -2.23602 | -47.18386 | 11994 ft | 268 kts | 280° |
| 2026-05-05 18:41 | -2.23309 | -47.20223 | 11992 ft | 267 kts | 279° |
| 2026-05-05 18:42 | -2.23014 | -47.22059 | 11993 ft | 267 kts | 280° |
| 2026-05-05 18:42 | -2.22721 | -47.23894 | 11988 ft | 268 kts | 280° |
| 2026-05-05 18:42 | -2.22428 | -47.25733 | 11994 ft | 268 kts | 279° |
| 2026-05-05 18:42 | -2.22134 | -47.27572 | 11994 ft | 268 kts | 279° |
| 2026-05-05 18:43 | -2.21840 | -47.29413 | 11994 ft | 268 kts | 280° |
| 2026-05-05 18:43 | -2.21546 | -47.31251 | 11995 ft | 268 kts | 279° |
| 2026-05-05 18:43 | -2.21253 | -47.33090 | 11985 ft | 268 kts | 280° |
| 2026-05-05 18:43 | -2.20960 | -47.34928 | 11994 ft | 267 kts | 279° |
| 2026-05-05 18:44 | -2.20667 | -47.36762 | 11994 ft | 267 kts | 280° |
| 2026-05-05 18:44 | -2.20373 | -47.38597 | 11991 ft | 267 kts | 280° |
| 2026-05-05 18:44 | -2.20080 | -47.40434 | 11994 ft | 268 kts | 279° |
| 2026-05-05 18:44 | -2.19787 | -47.42271 | 11994 ft | 268 kts | 280° |
| 2026-05-05 18:45 | -2.19493 | -47.44107 | 11995 ft | 267 kts | 280° |
| 2026-05-05 18:45 | -2.19199 | -47.45943 | 11994 ft | 268 kts | 279° |
| 2026-05-05 18:45 | -2.18907 | -47.47781 | 11994 ft | 268 kts | 280° |
| 2026-05-05 18:45 | -2.18607 | -47.49640 | 11993 ft | 268 kts | 280° |
| 2026-05-05 18:46 | -2.18315 | -47.51478 | 11991 ft | 268 kts | 279° |
| 2026-05-05 18:46 | -2.18022 | -47.53315 | 11995 ft | 267 kts | 280° |
| 2026-05-05 18:46 | -2.17729 | -47.55151 | 11995 ft | 267 kts | 279° |
| 2026-05-05 18:46 | -2.17435 | -47.56985 | 11992 ft | 267 kts | 280° |
| 2026-05-05 18:47 | -2.17141 | -47.58820 | 11994 ft | 268 kts | 279° |
| 2026-05-05 18:47 | -2.16847 | -47.60656 | 11988 ft | 267 kts | 280° |
| 2026-05-05 18:47 | -2.16555 | -47.62494 | 11994 ft | 268 kts | 279° |
| 2026-05-05 18:47 | -2.16260 | -47.64330 | 11994 ft | 268 kts | 280° |
| 2026-05-05 18:48 | -2.15966 | -47.66167 | 11989 ft | 268 kts | 280° |
| 2026-05-05 18:48 | -2.15672 | -47.68003 | 11994 ft | 267 kts | 279° |
| 2026-05-05 18:48 | -2.15379 | -47.69840 | 11995 ft | 267 kts | 280° |
| 2026-05-05 18:48 | -2.15085 | -47.71676 | 11993 ft | 268 kts | 279° |
| 2026-05-05 18:49 | -2.14791 | -47.73512 | 11993 ft | 267 kts | 280° |
| 2026-05-05 18:49 | -2.14497 | -47.75349 | 11991 ft | 268 kts | 279° |
| 2026-05-05 18:49 | -2.14204 | -47.77188 | 11995 ft | 268 kts | 280° |
| 2026-05-05 18:49 | -2.13909 | -47.79023 | 11990 ft | 267 kts | 279° |
| 2026-05-05 18:50 | -2.13616 | -47.80859 | 11993 ft | 267 kts | 280° |
| 2026-05-05 18:50 | -2.13321 | -47.82695 | 11994 ft | 268 kts | 279° |
| 2026-05-05 18:50 | -2.13028 | -47.84534 | 11990 ft | 268 kts | 280° |
| 2026-05-05 18:50 | -2.12733 | -47.86374 | 11995 ft | 268 kts | 279° |
| 2026-05-05 18:51 | -2.12439 | -47.88214 | 11990 ft | 268 kts | 280° |
| 2026-05-05 18:51 | -2.12144 | -47.90053 | 11996 ft | 268 kts | 279° |
| 2026-05-05 18:51 | -2.11849 | -47.91892 | 11991 ft | 268 kts | 280° |
| 2026-05-05 18:51 | -2.11555 | -47.93732 | 11994 ft | 268 kts | 279° |
| 2026-05-05 18:52 | -2.11257 | -47.95597 | 11991 ft | 268 kts | 280° |
| 2026-05-05 18:52 | -2.10961 | -47.97439 | 11994 ft | 268 kts | 280° |
| 2026-05-05 18:52 | -2.10666 | -47.99281 | 11993 ft | 268 kts | 279° |
| 2026-05-05 18:52 | -2.10371 | -48.01120 | 11994 ft | 268 kts | 280° |
| 2026-05-05 18:53 | -2.10077 | -48.02958 | 11994 ft | 268 kts | 280° |
| 2026-05-05 18:53 | -2.09782 | -48.04792 | 11995 ft | 267 kts | 280° |
| 2026-05-05 18:53 | -2.09489 | -48.06631 | 11990 ft | 267 kts | 279° |
| 2026-05-05 18:53 | -2.09196 | -48.08465 | 11994 ft | 267 kts | 280° |
| 2026-05-05 18:54 | -2.08901 | -48.10302 | 11995 ft | 268 kts | 280° |
| 2026-05-05 18:54 | -2.08605 | -48.12140 | 11995 ft | 268 kts | 280° |
| 2026-05-05 18:54 | -2.08311 | -48.13978 | 11994 ft | 268 kts | 279° |
| 2026-05-05 18:54 | -2.08018 | -48.15813 | 11995 ft | 267 kts | 280° |
| 2026-05-05 18:55 | -2.07723 | -48.17648 | 11994 ft | 267 kts | 280° |
| 2026-05-05 18:55 | -2.07429 | -48.19481 | 11989 ft | 267 kts | 280° |
| 2026-05-05 18:55 | -2.07135 | -48.21317 | 11994 ft | 267 kts | 280° |
| 2026-05-05 18:55 | -2.06841 | -48.23152 | 11985 ft | 267 kts | 279° |
| 2026-05-05 18:56 | -2.06547 | -48.24987 | 11994 ft | 267 kts | 280° |
| 2026-05-05 18:56 | -2.06252 | -48.26823 | 11995 ft | 267 kts | 280° |
| 2026-05-05 18:56 | -2.05958 | -48.28659 | 11993 ft | 267 kts | 280° |
| 2026-05-05 18:56 | -2.05664 | -48.30493 | 11995 ft | 267 kts | 279° |
| 2026-05-05 18:57 | -2.05370 | -48.32327 | 11992 ft | 267 kts | 280° |
| 2026-05-05 18:57 | -2.05076 | -48.34159 | 11995 ft | 267 kts | 280° |
| 2026-05-05 18:57 | -2.04781 | -48.35992 | 11987 ft | 267 kts | 279° |
| 2026-05-05 18:57 | -2.04488 | -48.37827 | 11993 ft | 267 kts | 280° |
| 2026-05-05 18:58 | -2.04193 | -48.39661 | 11993 ft | 267 kts | 279° |
| 2026-05-05 18:58 | -2.03899 | -48.41495 | 11994 ft | 267 kts | 280° |
| 2026-05-05 18:58 | -2.03605 | -48.43329 | 11993 ft | 267 kts | 279° |
| 2026-05-05 18:58 | -2.03310 | -48.45163 | 11996 ft | 268 kts | 280° |
| 2026-05-05 18:59 | -2.03015 | -48.46999 | 11994 ft | 268 kts | 280° |
| 2026-05-05 18:59 | -2.02720 | -48.48839 | 11990 ft | 268 kts | 279° |
| 2026-05-05 18:59 | -2.02422 | -48.50700 | 11997 ft | 268 kts | 280° |
| 2026-05-05 18:59 | -2.02126 | -48.52540 | 11994 ft | 268 kts | 280° |
| 2026-05-05 19:00 | -2.01830 | -48.54382 | 11991 ft | 268 kts | 280° |
| 2026-05-05 19:00 | -2.01538 | -48.56224 | 11995 ft | 268 kts | 280° |
| 2026-05-05 19:00 | -2.01237 | -48.58063 | 11994 ft | 268 kts | 280° |
| 2026-05-05 19:00 | -2.00942 | -48.59900 | 11996 ft | 267 kts | 279° |
| 2026-05-05 19:01 | -2.00650 | -48.61735 | 11982 ft | 267 kts | 280° |
| 2026-05-05 19:01 | -2.00356 | -48.63570 | 11993 ft | 267 kts | 280° |
| 2026-05-05 19:01 | -2.00062 | -48.65404 | 11996 ft | 267 kts | 279° |
| 2026-05-05 19:01 | -1.99765 | -48.67240 | 11995 ft | 267 kts | 280° |
| 2026-05-05 19:02 | -1.99471 | -48.69076 | 11994 ft | 267 kts | 280° |
| 2026-05-05 19:02 | -1.99177 | -48.70912 | 11995 ft | 268 kts | 280° |
| 2026-05-05 19:02 | -1.98879 | -48.72745 | 11991 ft | 268 kts | 280° |
| 2026-05-05 19:02 | -1.98585 | -48.74583 | 11994 ft | 268 kts | 279° |
| 2026-05-05 19:03 | -1.98223 | -48.76405 | 12003 ft | 268 kts | 288° |
| 2026-05-05 19:03 | -1.97394 | -48.78063 | 12013 ft | 267 kts | 304° |
| 2026-05-05 19:03 | -1.96148 | -48.79437 | 12015 ft | 268 kts | 320° |
| 2026-05-05 19:03 | -1.94595 | -48.80463 | 12009 ft | 268 kts | 329° |
| 2026-05-05 19:04 | -1.93001 | -48.81436 | 12005 ft | 268 kts | 328° |
| 2026-05-05 19:04 | -1.91413 | -48.82420 | 12004 ft | 269 kts | 329° |
| 2026-05-05 19:04 | -1.89820 | -48.83393 | 12003 ft | 268 kts | 329° |
| 2026-05-05 19:04 | -1.88228 | -48.84365 | 12000 ft | 268 kts | 329° |
| 2026-05-05 19:05 | -1.86635 | -48.85339 | 11998 ft | 268 kts | 329° |
| 2026-05-05 19:05 | -1.85043 | -48.86313 | 11996 ft | 268 kts | 329° |
| 2026-05-05 19:05 | -1.83449 | -48.87289 | 11996 ft | 269 kts | 329° |
| 2026-05-05 19:05 | -1.81852 | -48.88266 | 11996 ft | 269 kts | 329° |
| 2026-05-05 19:06 | -1.80259 | -48.89242 | 12009 ft | 269 kts | 329° |
| 2026-05-05 19:06 | -1.79127 | -48.89799 | 12012 ft | 269 kts | 340° |
| 2026-05-05 19:06 | -1.77301 | -48.90178 | 12011 ft | 269 kts | 356° |
| 2026-05-05 19:06 | -1.75438 | -48.90041 | 12012 ft | 270 kts | 13° |
| 2026-05-05 19:07 | -1.73679 | -48.89405 | 11909 ft | 274 kts | 27° |
| 2026-05-05 19:07 | -1.72110 | -48.88229 | 11257 ft | 288 kts | 46° |
| 2026-05-05 19:07 | -1.70947 | -48.86706 | 10526 ft | 266 kts | 57° |
| 2026-05-05 19:07 | -1.69919 | -48.85229 | 9769 ft | 252 kts | 55° |
| 2026-05-05 19:08 | -1.68925 | -48.83828 | 9016 ft | 242 kts | 56° |
| 2026-05-05 19:08 | -1.67985 | -48.82461 | 8264 ft | 235 kts | 56° |
| 2026-05-05 19:08 | -1.67074 | -48.81125 | 7510 ft | 230 kts | 56° |
| 2026-05-05 19:08 | -1.66193 | -48.79858 | 7157 ft | 210 kts | 56° |
| 2026-05-05 19:09 | -1.65399 | -48.78724 | 6932 ft | 189 kts | 56° |
| 2026-05-05 19:09 | -1.64684 | -48.77693 | 6713 ft | 172 kts | 56° |
| 2026-05-05 19:09 | -1.64030 | -48.76746 | 6505 ft | 159 kts | 56° |
| 2026-05-05 19:09 | -1.63423 | -48.75870 | 6314 ft | 148 kts | 56° |
| 2026-05-05 19:10 | -1.62859 | -48.75055 | 6135 ft | 138 kts | 56° |
| 2026-05-05 19:10 | -1.62332 | -48.74295 | 5972 ft | 129 kts | 55° |
| 2026-05-05 19:10 | -1.61826 | -48.73565 | 5812 ft | 123 kts | 56° |
| 2026-05-05 19:10 | -1.61350 | -48.72879 | 5658 ft | 118 kts | 56° |
| 2026-05-05 19:11 | -1.60873 | -48.72192 | 5521 ft | 123 kts | 56° |
| 2026-05-05 19:11 | -1.60382 | -48.71480 | 5373 ft | 125 kts | 56° |
| 2026-05-05 19:11 | -1.59886 | -48.70762 | 5215 ft | 125 kts | 56° |
| 2026-05-05 19:11 | -1.59393 | -48.70048 | 5056 ft | 125 kts | 56° |
| 2026-05-05 19:12 | -1.58901 | -48.69336 | 4898 ft | 124 kts | 56° |
| 2026-05-05 19:12 | -1.58410 | -48.68626 | 4747 ft | 124 kts | 56° |
| 2026-05-05 19:12 | -1.57917 | -48.67917 | 4593 ft | 125 kts | 55° |
| 2026-05-05 19:12 | -1.57394 | -48.67233 | 4434 ft | 124 kts | 45° |
| 2026-05-05 19:13 | -1.56764 | -48.66632 | 4272 ft | 127 kts | 45° |
| 2026-05-05 19:13 | -1.56151 | -48.65998 | 4113 ft | 126 kts | 47° |
| 2026-05-05 19:13 | -1.55522 | -48.65389 | 3953 ft | 126 kts | 43° |
| 2026-05-05 19:13 | -1.54889 | -48.64784 | 3797 ft | 123 kts | 45° |
| 2026-05-05 19:14 | -1.54307 | -48.64207 | 3640 ft | 113 kts | 45° |
| 2026-05-05 19:14 | -1.53774 | -48.63681 | 3495 ft | 102 kts | 45° |
| 2026-05-05 19:14 | -1.53287 | -48.63190 | 3362 ft | 97 kts | 45° |
| 2026-05-05 19:14 | -1.52820 | -48.62714 | 3243 ft | 95 kts | 45° |
| 2026-05-05 19:15 | -1.52359 | -48.62240 | 3141 ft | 96 kts | 45° |
| 2026-05-05 19:15 | -1.51882 | -48.61768 | 3039 ft | 101 kts | 44° |
| 2026-05-05 19:15 | -1.51334 | -48.61207 | 2930 ft | 124 kts | 47° |
| 2026-05-05 19:15 | -1.50694 | -48.60555 | 2769 ft | 137 kts | 45° |
| 2026-05-05 19:16 | -1.50020 | -48.59867 | 2702 ft | 137 kts | 46° |
| 2026-05-05 19:16 | -1.49394 | -48.59243 | 2708 ft | 120 kts | 45° |
| 2026-05-05 19:16 | -1.48818 | -48.58650 | 2694 ft | 116 kts | 46° |
| 2026-05-05 19:16 | -1.48254 | -48.58087 | 2664 ft | 112 kts | 46° |
| 2026-05-05 19:17 | -1.47700 | -48.57520 | 2519 ft | 116 kts | 46° |
| 2026-05-05 19:17 | -1.47126 | -48.56934 | 2368 ft | 119 kts | 45° |
| 2026-05-05 19:17 | -1.46545 | -48.56347 | 2210 ft | 118 kts | 46° |
| 2026-05-05 19:17 | -1.46002 | -48.55797 | 2054 ft | 104 kts | 45° |
| 2026-05-05 19:18 | -1.45517 | -48.55302 | 1916 ft | 96 kts | 45° |
| 2026-05-05 19:18 | -1.45056 | -48.54841 | 1793 ft | 92 kts | 46° |
| 2026-05-05 19:18 | -1.44617 | -48.54394 | 1675 ft | 89 kts | 45° |
| 2026-05-05 19:18 | -1.44191 | -48.53960 | 1562 ft | 87 kts | 44° |
| 2026-05-05 19:19 | -1.43750 | -48.53517 | 1453 ft | 93 kts | 46° |
| 2026-05-05 19:19 | -1.43286 | -48.53044 | 1329 ft | 98 kts | 46° |
| 2026-05-05 19:19 | -1.42802 | -48.52551 | 1196 ft | 101 kts | 45° |
| 2026-05-05 19:19 | -1.42312 | -48.52052 | 1058 ft | 99 kts | 46° |
| 2026-05-05 19:20 | -1.41832 | -48.51572 | 925 ft | 96 kts | 46° |
| 2026-05-05 19:20 | -1.41370 | -48.51098 | 798 ft | 94 kts | 45° |
| 2026-05-05 19:20 | -1.40914 | -48.50638 | 674 ft | 93 kts | 44° |
| 2026-05-05 19:20 | -1.40465 | -48.50181 | 552 ft | 91 kts | 45° |
| 2026-05-05 19:21 | -1.40023 | -48.49731 | 432 ft | 90 kts | 46° |
| 2026-05-05 19:21 | -1.39581 | -48.49289 | 313 ft | 89 kts | 46° |
| 2026-05-05 19:21 | -1.39148 | -48.48846 | 196 ft | 89 kts | 45° |
| 2026-05-05 19:21 | -1.38738 | -48.48430 | 64 ft | 80 kts | 46° |
| 2026-05-05 19:22 | -1.38394 | -48.48080 | 41 ft | 63 kts | 46° |
| 2026-05-05 19:22 | -1.38163 | -48.47847 | 42 ft | 31 kts | 37° |
| 2026-05-05 19:22 | -1.38070 | -48.47868 | 43 ft | 0 kts | 304° |
| 2026-05-05 19:22 | -1.38069 | -48.47868 | 43 ft | 1 kts | 304° |
| 2026-05-05 19:23 | -1.38039 | -48.47898 | 43 ft | 10 kts | 321° |
| 2026-05-05 19:23 | -1.37984 | -48.47901 | 43 ft | 8 kts | 352° |
| 2026-05-05 19:23 | -1.37976 | -48.47905 | 43 ft | 0 kts | 303° |